createdAt,value
2023-04-10T20:22:54.426Z,3.20
2023-04-10T20:23:54.253Z,3.30
2023-04-10T20:24:54.224Z,3.40
2023-04-10T20:25:54.286Z,3.40
2023-04-10T20:26:54.184Z,3.20
2023-04-10T20:27:54.189Z,3.40
2023-04-10T20:28:54.668Z,3.00
2023-04-10T20:29:54.153Z,3.40
2023-04-10T20:30:54.132Z,2.80
2023-04-10T20:31:54.147Z,3.50
2023-04-10T20:32:54.177Z,3.20
2023-04-10T20:33:54.146Z,3.70
2023-04-10T20:34:54.126Z,3.40
2023-04-10T20:35:54.113Z,3.00
2023-04-10T20:36:54.054Z,3.20
2023-04-10T20:37:54.068Z,3.20
2023-04-10T20:38:54.261Z,3.00
2023-04-10T20:39:54.069Z,3.40
2023-04-10T20:40:54.009Z,2.90
2023-04-10T20:41:53.994Z,3.10
2023-04-10T20:42:54.008Z,2.90
2023-04-10T20:43:53.998Z,3.50
2023-04-10T20:44:53.966Z,3.30
2023-04-10T20:45:53.964Z,3.10
2023-04-10T20:46:53.960Z,2.70
2023-04-10T20:47:53.977Z,3.30
2023-04-10T20:48:54.049Z,3.40
2023-04-10T20:49:53.896Z,3.50
2023-04-10T20:50:53.926Z,3.40
2023-04-10T20:51:53.923Z,2.90
2023-04-10T20:52:53.903Z,3.00
2023-04-10T20:53:53.853Z,3.10
2023-04-10T20:54:53.845Z,3.40
2023-04-10T20:55:53.831Z,3.10
2023-04-10T20:56:53.866Z,3.70
2023-04-10T20:57:53.800Z,3.30
2023-04-10T20:58:53.959Z,3.40
2023-04-10T20:59:53.781Z,3.40
2023-04-10T21:00:53.830Z,3.20
2023-04-10T21:01:53.819Z,3.00
2023-04-10T21:02:53.974Z,3.40
2023-04-10T21:03:53.797Z,3.20
2023-04-10T21:04:53.728Z,3.30
2023-04-10T21:05:54.195Z,3.30
2023-04-10T21:06:53.706Z,3.40
2023-04-10T21:07:53.736Z,3.50
2023-04-10T21:08:53.844Z,3.10
2023-04-10T21:09:53.668Z,3.30
2023-04-10T21:10:53.660Z,3.20
2023-04-10T21:11:53.639Z,3.30
2023-04-10T21:12:53.630Z,3.40
2023-04-10T21:13:53.648Z,3.40
2023-04-10T21:14:53.942Z,3.60
2023-04-10T21:15:53.589Z,3.20
2023-04-10T21:16:53.660Z,3.50
2023-04-10T21:17:53.619Z,3.60
2023-04-10T21:18:53.860Z,3.20
2023-04-10T21:19:53.631Z,3.20
2023-04-10T21:20:53.535Z,3.30
2023-04-10T21:21:53.525Z,3.40
2023-04-10T21:22:53.519Z,3.40
2023-04-10T21:23:53.493Z,3.40
2023-04-10T21:24:53.531Z,3.20
2023-04-10T21:25:53.473Z,3.20
2023-04-10T21:26:53.469Z,3.50
2023-04-10T21:27:53.458Z,2.90
2023-04-10T21:28:53.706Z,3.40
2023-04-10T21:29:53.426Z,3.20
2023-04-10T21:30:53.520Z,3.20
2023-04-10T21:31:53.503Z,3.40
2023-04-10T21:32:53.412Z,3.50
2023-04-10T21:33:53.405Z,3.40
2023-04-10T21:34:53.370Z,3.50
2023-04-10T21:35:53.376Z,3.20
2023-04-10T21:36:53.370Z,3.40
2023-04-10T21:37:53.339Z,3.30
2023-04-10T21:38:53.716Z,3.40
2023-04-10T21:39:53.296Z,3.30
2023-04-10T21:40:53.281Z,3.50
2023-04-10T21:41:53.266Z,3.30
2023-04-10T21:42:54.761Z,3.00
2023-04-10T21:43:53.391Z,3.20
2023-04-10T21:44:53.232Z,3.10
2023-04-10T21:45:53.231Z,2.80
2023-04-10T21:46:53.203Z,3.10
2023-04-10T21:47:53.253Z,3.00
2023-04-10T21:48:53.456Z,3.50
2023-04-10T21:49:53.177Z,3.50
2023-04-10T21:50:53.170Z,3.50
2023-04-10T21:51:53.140Z,3.20
2023-04-10T21:52:53.130Z,3.20
2023-04-10T21:53:53.121Z,3.20
2023-04-10T21:54:53.138Z,2.90
2023-04-10T21:55:53.088Z,2.90
2023-04-10T21:56:53.105Z,3.30
2023-04-10T21:57:53.068Z,3.20
2023-04-10T21:58:53.267Z,3.20
2023-04-10T21:59:54.206Z,3.30
2023-04-10T22:00:54.199Z,3.30
2023-04-10T22:01:54.183Z,3.50
2023-04-10T22:02:54.297Z,3.50
2023-04-10T22:03:54.344Z,3.40
2023-04-10T22:04:54.925Z,3.40
2023-04-10T22:05:55.706Z,3.10
2023-04-10T22:06:54.068Z,3.40
2023-04-10T22:07:54.066Z,3.20
2023-04-10T22:08:54.241Z,3.40
2023-04-10T22:09:54.053Z,3.20
2023-04-10T22:10:54.043Z,3.50
2023-04-10T22:11:54.048Z,3.50
2023-04-10T22:12:53.995Z,3.30
2023-04-10T22:13:54.858Z,3.20
2023-04-10T22:14:54.757Z,3.40
2023-04-10T22:15:53.974Z,3.30
2023-04-10T22:16:54.020Z,3.30
2023-04-10T22:17:53.958Z,3.50
2023-04-10T22:18:54.077Z,3.20
2023-04-10T22:19:53.932Z,3.30
2023-04-10T22:20:53.926Z,3.20
2023-04-10T22:21:53.897Z,3.30
2023-04-10T22:22:53.917Z,3.30
2023-04-10T22:23:53.879Z,2.80
2023-04-10T22:24:53.871Z,3.50
2023-04-10T22:25:53.839Z,3.30
2023-04-10T22:26:53.839Z,3.20
2023-04-10T22:27:53.864Z,3.20
2023-04-10T22:28:54.073Z,3.20
2023-04-10T22:30:03.244Z,3.10
2023-04-10T22:30:54.859Z,3.20
2023-04-10T22:31:53.777Z,3.40
2023-04-10T22:32:53.804Z,3.20
2023-04-10T22:33:54.342Z,3.10
2023-04-10T22:34:53.749Z,3.30
2023-04-10T22:35:53.948Z,3.30
2023-04-10T22:36:53.708Z,3.30
2023-04-10T22:37:54.692Z,3.40
2023-04-10T22:38:53.894Z,3.50
2023-04-10T22:39:53.678Z,3.20
2023-04-10T22:40:53.668Z,3.30
2023-04-10T22:41:53.645Z,3.40
2023-04-10T22:42:53.642Z,3.50
2023-04-10T22:43:53.694Z,3.20
2023-04-10T22:44:53.617Z,3.50
2023-04-10T22:45:53.730Z,3.10
2023-04-10T22:46:53.616Z,3.40
2023-04-10T22:47:53.591Z,3.10
2023-04-10T22:48:54.837Z,3.80
2023-04-10T22:49:53.559Z,2.60
2023-04-10T22:50:53.545Z,4.00
2023-04-10T22:51:53.524Z,4.00
2023-04-10T22:52:53.556Z,3.60
2023-04-10T22:53:53.510Z,4.30
2023-04-10T22:54:53.519Z,4.30
2023-04-10T22:55:53.474Z,4.70
2023-04-10T22:56:53.501Z,4.30
2023-04-10T22:57:53.449Z,4.70
2023-04-10T22:58:53.746Z,5.40
2023-04-10T22:59:53.485Z,4.70
2023-04-10T23:00:53.420Z,4.50
2023-04-10T23:01:53.455Z,4.60
2023-04-10T23:02:53.518Z,4.60
2023-04-10T23:03:53.404Z,4.80
2023-04-10T23:04:53.527Z,5.30
2023-04-10T23:05:53.370Z,4.90
2023-04-10T23:06:53.356Z,5.00
2023-04-10T23:07:53.477Z,5.10
2023-04-10T23:08:54.862Z,4.90
2023-04-10T23:09:54.065Z,5.40
2023-04-10T23:10:53.344Z,5.00
2023-04-10T23:11:53.272Z,5.70
2023-04-10T23:12:53.286Z,5.60
2023-04-10T23:13:53.262Z,5.70
2023-04-10T23:14:53.247Z,5.50
2023-04-10T23:15:53.329Z,5.90
2023-04-10T23:16:53.227Z,5.50
2023-04-10T23:17:53.235Z,5.90
2023-04-10T23:18:53.408Z,6.00
2023-04-10T23:19:53.185Z,6.00
2023-04-10T23:20:53.172Z,5.20
2023-04-10T23:21:53.201Z,5.60
2023-04-10T23:22:53.148Z,5.40
2023-04-10T23:23:53.137Z,5.70
2023-04-10T23:24:53.174Z,5.70
2023-04-10T23:25:53.141Z,5.60
2023-04-10T23:26:53.155Z,5.10
2023-04-10T23:27:53.102Z,5.10
2023-04-10T23:28:53.243Z,5.20
2023-04-10T23:29:53.064Z,5.40
2023-04-10T23:30:53.078Z,4.30
2023-04-10T23:31:53.032Z,5.10
2023-04-10T23:32:53.139Z,4.30
2023-04-10T23:33:53.011Z,3.90
2023-04-10T23:34:53.017Z,3.40
2023-04-10T23:35:53.040Z,3.00
2023-04-10T23:36:52.984Z,2.60
2023-04-10T23:37:53.042Z,2.40
2023-04-10T23:38:53.307Z,2.40
2023-04-10T23:39:52.961Z,2.20
2023-04-10T23:40:52.942Z,2.20
2023-04-10T23:41:52.920Z,2.10
2023-04-10T23:42:52.923Z,2.20
2023-04-10T23:43:52.920Z,2.20
2023-04-10T23:44:52.887Z,1.90
2023-04-10T23:45:52.886Z,2.10
2023-04-10T23:46:52.910Z,2.00
2023-04-10T23:47:52.985Z,1.90
2023-04-10T23:48:53.075Z,2.10
2023-04-10T23:49:52.832Z,2.10
2023-04-10T23:50:52.812Z,2.20
2023-04-10T23:51:52.805Z,2.10
2023-04-10T23:52:52.783Z,2.10
2023-04-10T23:53:52.818Z,2.20
2023-04-10T23:54:52.769Z,2.10
2023-04-10T23:55:52.737Z,2.10
2023-04-10T23:56:52.773Z,2.40
2023-04-10T23:57:52.734Z,2.40
2023-04-10T23:58:52.939Z,2.10
2023-04-10T23:59:52.732Z,2.20
